MT WASHINGTON (MTW)

Elevation: 920' · LOS ANGELES R basin · Operator: Los Angeles County Fire Dept

Query executed Monday at 3:59:41   clock

Provisional data, subject to change.
Select a sensor type for a plot of data.

Earlier

Date   /   Time   RAIN     TEMP     REL HUM     BAR PRE     FUEL MS     FUEL TP     WIND SP     WIND DR     PEAK WS     PEAK WD     SOLAR R     BAT VOL    
(PST)INCHES   DEG F   %   INCHES   %   DEG F   MPH   DEG   MPH   DEG   W/M^2   VOLTS  
11/23/2014 04:00 0.34 55 88 -- 19 54 -- -- -- -- 0.00 12.3
11/23/2014 05:00 0.34 57 87 -- 19 54 -- -- -- -- 0.00 12.2
11/23/2014 06:00 0.34 54 87 -- 19 53 -- -- -- -- 5.00 12.3
11/23/2014 07:00 0.34 63 52 -- 17 58 -- -- -- -- 55.00 12.8
11/23/2014 08:00 0.34 71 32 -- 15 70 -- -- -- -- 280.00 13.5
11/23/2014 09:00 0.34 68 47 -- 14 68 -- -- -- -- 349.00 13.5
11/23/2014 10:00 0.34 72 34 -- 13 75 -- -- -- -- 494.00 13.5
11/23/2014 11:00 0.34 75 24 -- 11 86 -- -- -- -- 562.00 13.4
11/23/2014 12:00 0.34 79 15 -- 10 94 -- -- -- -- 577.00 13.4
11/23/2014 13:00 0.34 81 14 -- 9 86 -- -- -- -- 492.00 13.4
11/23/2014 14:00 0.34 77 13 -- 8 78 -- -- -- -- 279.00 13.5
11/23/2014 15:00 0.34 75 16 -- 8 73 -- -- -- -- 148.00 13.4
11/23/2014 16:00 0.34 70 18 -- 7 67 -- -- -- -- 23.00 12.6
11/23/2014 17:00 0.34 69 7 -- 7 65 -- -- -- -- 0.00 12.5
11/23/2014 18:00 0.34 66 7 -- 7 64 -- -- -- -- 0.00 12.5
11/23/2014 19:00 0.34 63 11 -- 7 62 -- -- -- -- 0.00 12.5
11/23/2014 20:00 0.34 62 11 -- 7 60 -- -- -- -- 0.00 12.4
11/23/2014 21:00 0.34 62 14 -- 7 59 -- -- -- -- 0.00 12.4
11/23/2014 22:00 0.34 61 12 -- 6 58 -- -- -- -- 0.00 12.4
11/23/2014 23:00 0.34 60 12 -- 6 57 -- -- -- -- 0.00 12.4
11/24/2014 00:00 0.34 63 10 -- 6 59 -- -- -- -- 0.00 12.4
11/24/2014 01:00 0.34 61 11 -- 6 58 -- -- -- -- 0.00 12.4
11/24/2014 02:00 0.34 58 12 -- 6 57 -- -- -- -- 0.00 12.3
11/24/2014 03:00 0.34 57 14 -- 6 55 -- -- -- -- 0.00 12.3

Later | Latest

Warning! This data is preliminary and subject to revision.

Show MTW Map | 24 Hours MTW Data | Plot all MTW Sensors | Daily MTW Data | MTW Info